DMN weather

Deming Municipal Airport
Deming, New Mexico, United States

Public forecast

Using degrees Fahrenheit for public forecast. Weather courtesy of forecast.io.

Current aviation weather report (METAR) for Deming Municipal Airport

Retrieved 2019/10/22 01:53 UTC (17 minutes ago):

KDMN 220153Z AUTO 27006KT 10SM CLR 17/M13 A3010 RMK AO2 SLP160 T01671128 TSNO

Aviation forecast (TAF) for Deming Municipal Airport

Retrieved 2019-10-22 00:39 UTC (2 hours ago):

TAF KDMN 212337Z 2200/2224 28015G25KT P6SM SKC FM220300 35006KT P6SM SKC FM221800 VRB05KT P6SM SKC